Time;durP1;ratioP1;P1;durP2;ratioP2;P2;SDS_P1;SDS_P2;PMS_P1;PMS_P2;Temp;Humidity;BMP_temperature;BMP_pressure;BME280_temperature;BME280_humidity;BME280_pressure;Samples;Min_cycle;Max_cycle;Signal;HPM_P1;HPM_P2
2022/03/03 00:01:53;;;;;;;23.48;13.07;;;;;;;0.77;61.67;95256.19;5066801;28;20479;-70
2022/03/03 00:04:19;;;;;;;21.27;13.10;;;;;;;0.80;61.27;95263.03;5068062;28;20044;-71
2022/03/03 00:06:45;;;;;;;22.83;13.00;;;;;;;0.81;61.53;95270.81;5067486;28;20043;-69
2022/03/03 00:09:10;;;;;;;20.33;12.27;;;;;;;0.80;61.58;95258.59;5066824;28;20040;-69
2022/03/03 00:11:36;;;;;;;21.77;12.77;;;;;;;0.81;62.24;95260.25;5066614;28;20085;-69
2022/03/03 00:14:01;;;;;;;21.45;13.10;;;;;;;0.82;61.93;95255.84;5082830;28;20020;-70
2022/03/03 00:16:27;;;;;;;23.55;12.73;;;;;;;0.89;61.34;95259.66;5083793;28;20032;-70
2022/03/03 00:18:52;;;;;;;24.17;13.88;;;;;;;0.85;61.19;95252.94;5065441;28;20020;-69
2022/03/03 00:21:18;;;;;;;23.40;13.05;;;;;;;0.88;60.94;95249.22;5066726;28;20024;-69
2022/03/03 00:23:43;;;;;;;24.00;12.82;;;;;;;0.89;61.57;95243.00;5066719;28;20029;-69
2022/03/03 00:26:09;;;;;;;21.60;13.70;;;;;;;0.95;61.16;95250.41;5083385;28;20538;-70
2022/03/03 00:28:34;;;;;;;21.70;13.20;;;;;;;1.00;60.89;95244.78;5048978;28;20329;-69
2022/03/03 00:31:00;;;;;;;22.00;13.05;;;;;;;0.91;61.35;95241.03;5083088;28;20456;-70
2022/03/03 00:33:25;;;;;;;21.27;13.57;;;;;;;0.90;61.97;95248.16;5065741;28;20359;-69
2022/03/03 00:35:50;;;;;;;23.40;13.60;;;;;;;0.86;61.87;95246.69;5066931;28;20025;-70
2022/03/03 00:38:16;;;;;;;20.38;12.80;;;;;;;0.95;61.08;95239.84;5067769;28;20024;-70
2022/03/03 00:40:42;;;;;;;23.38;12.90;;;;;;;0.92;61.62;95245.38;5081606;28;20029;-69
2022/03/03 00:43:08;;;;;;;21.45;13.15;;;;;;;0.98;60.58;95248.34;5066761;28;20036;-69
2022/03/03 00:45:34;;;;;;;19.58;12.10;;;;;;;0.93;61.30;95247.91;5081645;28;20039;-69
2022/03/03 00:47:59;;;;;;;22.73;13.48;;;;;;;1.04;60.74;95248.84;5066244;28;20517;-70
2022/03/03 00:50:25;;;;;;;20.55;12.35;;;;;;;1.04;61.17;95260.25;5066661;28;20024;-71
2022/03/03 00:52:50;;;;;;;20.02;13.70;;;;;;;1.06;60.43;95247.78;5065633;28;20020;-69
2022/03/03 00:55:16;;;;;;;23.00;13.27;;;;;;;1.07;61.30;95249.44;5067290;28;20028;-70
2022/03/03 00:57:41;;;;;;;24.30;13.73;;;;;;;0.97;61.49;95245.84;5066630;28;20028;-69
2022/03/03 01:00:07;;;;;;;25.92;13.63;;;;;;;1.09;61.10;95246.66;5067439;28;20035;-70
2022/03/03 01:02:33;;;;;;;22.83;13.70;;;;;;;1.08;61.02;95245.81;5064008;28;20028;-70
2022/03/03 01:04:58;;;;;;;20.23;12.57;;;;;;;1.04;61.04;95244.41;5066034;28;20032;-70
2022/03/03 01:07:24;;;;;;;21.45;14.48;;;;;;;0.98;61.70;95243.06;5065813;28;20089;-70
2022/03/03 01:09:49;;;;;;;20.83;12.75;;;;;;;1.00;61.19;95240.31;5082361;28;20029;-70
2022/03/03 01:12:16;;;;;;;22.08;13.73;;;;;;;1.03;61.89;95239.25;5082309;28;20027;-70
2022/03/03 01:14:42;;;;;;;22.52;14.43;;;;;;;1.06;60.91;95242.50;5066155;28;20342;-69
2022/03/03 01:17:07;;;;;;;22.27;13.15;;;;;;;1.11;61.13;95234.19;5082589;28;20021;-70
2022/03/03 01:19:33;;;;;;;20.42;13.55;;;;;;;1.16;60.80;95236.47;5080714;28;20101;-71
2022/03/03 01:21:58;;;;;;;20.38;13.65;;;;;;;1.13;60.79;95234.88;5067116;28;20540;-70
2022/03/03 01:24:24;;;;;;;21.65;13.38;;;;;;;1.16;61.19;95232.00;5064072;28;20024;-70
2022/03/03 01:26:49;;;;;;;20.38;13.27;;;;;;;1.08;61.50;95232.63;5065575;28;20028;-70
2022/03/03 01:29:15;;;;;;;19.65;13.27;;;;;;;1.15;61.15;95232.13;5065917;28;20029;-70
2022/03/03 01:31:40;;;;;;;20.60;13.80;;;;;;;0.92;62.20;95230.34;5064243;28;20035;-69
2022/03/03 01:34:08;;;;;;;22.50;13.13;;;;;;;0.95;62.27;95222.19;5065221;28;20028;-69
2022/03/03 01:36:34;;;;;;;21.88;12.77;;;;;;;1.00;61.29;95219.19;5063874;28;20481;-68
2022/03/03 01:39:00;;;;;;;21.45;13.20;;;;;;;1.02;61.50;95216.41;5048992;28;20483;-69
2022/03/03 01:41:25;;;;;;;21.25;13.65;;;;;;;1.05;61.65;95214.38;5080541;28;20472;-69
2022/03/03 01:43:51;;;;;;;21.63;13.82;;;;;;;1.08;61.37;95210.66;5065481;28;20384;-71
2022/03/03 01:46:16;;;;;;;22.40;14.13;;;;;;;1.16;60.78;95210.84;5064254;28;20507;-69
2022/03/03 01:48:43;;;;;;;23.20;14.27;;;;;;;1.11;61.30;95220.97;5065016;28;20046;-71
2022/03/03 01:51:09;;;;;;;22.15;14.43;;;;;;;0.97;62.14;95214.16;5064927;28;20036;-71
2022/03/03 01:53:34;;;;;;;23.77;14.80;;;;;;;0.95;61.88;95210.81;5064371;28;20032;-69
2022/03/03 01:55:59;;;;;;;21.58;13.75;;;;;;;0.99;61.18;95204.31;5066878;28;20028;-69
2022/03/03 01:58:25;;;;;;;23.50;14.95;;;;;;;0.93;62.12;95197.72;5080804;28;20070;-71
2022/03/03 02:00:51;;;;;;;23.38;13.75;;;;;;;0.97;61.90;95200.94;5066371;28;20032;-69
2022/03/03 02:03:16;;;;;;;23.73;14.30;;;;;;;1.03;61.54;95204.91;5063502;28;20051;-70
2022/03/03 02:05:42;;;;;;;22.80;13.55;;;;;;;0.95;61.57;95194.97;5064900;28;20017;-70
2022/03/03 02:08:07;;;;;;;24.42;14.20;;;;;;;0.86;62.60;95193.88;5065679;28;20024;-70
2022/03/03 02:10:33;;;;;;;21.98;13.18;;;;;;;0.89;62.03;95200.75;5064453;28;20024;-69
2022/03/03 02:12:58;;;;;;;23.90;14.70;;;;;;;0.79;62.86;95203.28;5064873;28;20396;-69
2022/03/03 02:15:24;;;;;;;27.33;14.25;;;;;;;0.86;62.28;95200.00;5065222;28;20476;-70
2022/03/03 02:17:49;;;;;;;24.05;14.32;;;;;;;0.91;62.38;95204.06;5065140;28;20033;-70
2022/03/03 02:20:25;;;;;;;22.23;13.57;;;;;;;0.91;63.21;95201.44;5063390;28;20471;-69
2022/03/03 02:22:51;;;;;;;24.02;13.93;;;;;;;0.85;62.92;95200.97;5064909;28;20053;-69
2022/03/03 02:25:17;;;;;;;23.52;14.13;;;;;;;0.91;62.45;95204.06;5065219;28;20396;-70
2022/03/03 02:27:42;;;;;;;21.70;13.02;;;;;;;0.83;62.58;95200.25;5065718;28;20067;-70
2022/03/03 02:30:08;;;;;;;24.20;13.98;;;;;;;0.81;63.36;95196.91;5064631;28;20036;-70
2022/03/03 02:32:34;;;;;;;22.63;13.38;;;;;;;0.88;62.71;95196.41;5065189;28;20028;-70
2022/03/03 02:34:59;;;;;;;22.80;13.40;;;;;;;0.85;63.26;95198.31;5066098;28;20021;-70
2022/03/03 02:37:31;;;;;;;22.10;13.88;;;;;;;0.86;63.40;95200.00;5063390;28;20025;-70
2022/03/03 02:39:56;;;;;;;27.48;14.05;;;;;;;0.73;63.87;95199.31;5066079;28;20028;-70
2022/03/03 02:42:22;;;;;;;22.35;14.07;;;;;;;0.71;64.35;95190.69;5080417;28;20021;-70
2022/03/03 02:44:47;;;;;;;22.27;14.07;;;;;;;0.75;63.87;95189.47;5069449;28;20017;-69
2022/03/03 02:47:13;;;;;;;20.15;13.30;;;;;;;0.73;64.71;95191.38;5069530;28;20372;-70
2022/03/03 02:49:38;;;;;;;23.20;13.52;;;;;;;0.69;64.15;95197.88;5069155;28;20514;-69
2022/03/03 02:52:04;;;;;;;22.38;13.40;;;;;;;0.78;64.89;95189.22;5069779;28;20379;-70
2022/03/03 02:54:29;;;;;;;22.45;13.15;;;;;;;0.81;64.75;95196.03;5084090;28;20060;-69
2022/03/03 02:59:39;;;;;;;23.35;14.45;;;;;;;0.73;65.22;95194.88;5068465;28;20498;-69
2022/03/03 03:02:04;;;;;;;21.70;12.80;;;;;;;0.79;64.16;95205.91;5068258;28;20028;-70
2022/03/03 03:04:30;;;;;;;23.02;13.55;;;;;;;0.79;64.13;95200.63;5068955;28;20529;-70
2022/03/03 03:06:55;;;;;;;22.25;14.07;;;;;;;0.79;64.32;95195.34;5068731;28;20020;-69
2022/03/03 03:09:21;;;;;;;22.85;14.15;;;;;;;0.83;64.22;95194.13;5068138;28;20406;-70
2022/03/03 03:11:46;;;;;;;21.30;13.23;;;;;;;0.95;64.54;95193.13;5067960;28;20432;-69
2022/03/03 03:14:11;;;;;;;19.33;13.20;;;;;;;0.96;64.71;95194.00;5069647;28;20028;-69
2022/03/03 03:16:37;;;;;;;24.25;13.82;;;;;;;0.97;64.90;95193.00;5067975;28;20024;-70
2022/03/03 03:19:02;;;;;;;23.65;14.18;;;;;;;0.96;64.18;95194.00;5069106;28;20036;-70
2022/03/03 03:21:28;;;;;;;25.50;14.35;;;;;;;0.89;64.20;95180.44;5068290;28;20023;-72
2022/03/03 03:23:53;;;;;;;24.17;15.05;;;;;;;0.80;64.27;95192.59;5069073;28;20426;-70
2022/03/03 03:26:19;;;;;;;19.98;13.32;;;;;;;0.76;64.66;95187.69;5068911;28;20029;-70
2022/03/03 03:28:44;;;;;;;23.20;14.10;;;;;;;0.74;65.49;95190.44;5068270;28;20028;-69
2022/03/03 03:31:09;;;;;;;23.00;13.63;;;;;;;0.70;65.15;95186.34;5068987;28;20028;-70
2022/03/03 03:33:35;;;;;;;26.15;13.75;;;;;;;0.70;65.35;95178.44;5083332;28;20024;-70
2022/03/03 03:36:00;;;;;;;23.95;14.50;;;;;;;0.60;65.60;95189.72;5067751;28;20063;-70
2022/03/03 03:38:26;;;;;;;22.77;13.70;;;;;;;0.57;65.47;95184.69;5083183;28;20029;-71
2022/03/03 03:40:51;;;;;;;21.13;13.20;;;;;;;0.56;64.99;95188.28;5068909;28;20462;-70
2022/03/03 03:43:17;;;;;;;23.73;13.43;;;;;;;0.51;65.55;95179.91;5067769;28;20467;-71
2022/03/03 03:45:42;;;;;;;25.50;13.25;;;;;;;0.55;65.78;95178.69;5066998;28;20051;-70
2022/03/03 03:48:07;;;;;;;22.67;13.73;;;;;;;0.54;65.84;95186.72;5068563;28;20028;-70
2022/03/03 03:50:33;;;;;;;22.40;13.85;;;;;;;0.48;65.81;95186.25;5067655;28;20029;-70
2022/03/03 03:52:58;;;;;;;24.92;13.38;;;;;;;0.46;65.77;95176.78;5068980;28;20020;-70
2022/03/03 03:55:24;;;;;;;24.20;13.88;;;;;;;0.45;66.32;95178.56;5066526;28;20024;-70
2022/03/03 03:57:49;;;;;;;22.40;13.00;;;;;;;0.43;66.70;95171.75;5067551;28;20047;-70
2022/03/03 04:00:15;;;;;;;30.05;15.07;;;;;;;0.39;66.81;95181.69;5067229;28;20036;-70
2022/03/03 04:02:41;;;;;;;21.27;13.20;;;;;;;0.43;66.34;95184.94;5068362;28;20021;-70
2022/03/03 04:05:07;;;;;;;22.17;13.40;;;;;;;0.44;66.70;95170.78;5068203;28;20035;-71
2022/03/03 04:07:32;;;;;;;23.63;13.73;;;;;;;0.41;66.96;95165.72;5067686;28;20032;-69
2022/03/03 04:09:58;;;;;;;28.23;13.63;;;;;;;0.46;66.19;95166.22;5067315;28;20475;-70
2022/03/03 04:12:23;;;;;;;22.08;13.75;;;;;;;0.48;65.88;95182.78;5066785;28;20021;-69
2022/03/03 04:14:49;;;;;;;22.95;14.00;;;;;;;0.46;65.74;95177.63;5067409;28;20427;-69
2022/03/03 04:17:14;;;;;;;24.38;14.20;;;;;;;0.42;65.69;95180.63;5065599;28;20029;-69
2022/03/03 04:19:39;;;;;;;24.77;13.70;;;;;;;0.35;66.12;95174.97;5067964;28;20021;-69
2022/03/03 04:22:05;;;;;;;22.65;13.52;;;;;;;0.34;66.45;95179.41;5067116;28;20028;-69
2022/03/03 04:24:30;;;;;;;24.40;13.80;;;;;;;0.24;66.13;95166.09;5067531;28;20395;-72
2022/03/03 04:26:56;;;;;;;24.83;13.20;;;;;;;0.24;66.77;95165.28;5066417;28;20083;-70
2022/03/03 04:29:22;;;;;;;23.85;13.95;;;;;;;0.23;66.18;95158.31;5065240;28;20402;-70
2022/03/03 04:31:49;;;;;;;21.17;12.65;;;;;;;0.22;66.55;95167.19;5083695;28;20109;-70
2022/03/03 04:34:14;;;;;;;26.25;14.35;;;;;;;0.24;66.90;95162.63;5066716;28;20470;-70
2022/03/03 04:36:39;;;;;;;24.10;13.05;;;;;;;0.23;66.61;95160.94;5066557;28;20035;-70
2022/03/03 04:39:05;;;;;;;22.25;13.00;;;;;;;0.23;66.79;95161.78;5065342;28;20044;-70
2022/03/03 04:41:30;;;;;;;25.27;13.65;;;;;;;0.22;66.51;95168.03;5066010;28;20383;-70
2022/03/03 04:43:56;;;;;;;20.85;12.30;;;;;;;0.21;67.05;95168.16;5067188;28;20592;-70
2022/03/03 04:46:21;;;;;;;25.40;14.70;;;;;;;0.18;66.83;95163.13;5066846;28;20024;-70
2022/03/03 04:48:47;;;;;;;21.40;12.60;;;;;;;0.17;67.36;95171.97;5067299;28;20035;-70
2022/03/03 04:51:12;;;;;;;23.33;12.95;;;;;;;0.23;66.99;95168.84;5066147;28;20029;-70
2022/03/03 04:53:37;;;;;;;22.15;13.02;;;;;;;0.22;66.92;95167.19;5067432;28;20056;-69
2022/03/03 04:56:03;;;;;;;21.95;12.32;;;;;;;0.17;67.65;95162.28;5066048;28;20047;-70
2022/03/03 04:58:28;;;;;;;20.63;13.02;;;;;;;0.17;68.18;95164.91;5067580;28;20390;-69
2022/03/03 05:00:54;;;;;;;23.95;13.30;;;;;;;0.11;68.43;95154.84;5064772;28;20032;-69
2022/03/03 05:03:20;;;;;;;24.65;13.20;;;;;;;0.08;67.96;95163.00;5066924;28;20056;-69
2022/03/03 05:05:46;;;;;;;24.83;12.65;;;;;;;0.08;67.71;95163.81;5081129;28;20040;-70
2022/03/03 05:08:11;;;;;;;22.55;13.02;;;;;;;0.09;67.11;95159.38;5064862;28;20044;-70
2022/03/03 05:10:37;;;;;;;24.88;12.75;;;;;;;0.10;67.36;95167.19;5065854;28;20362;-72
2022/03/03 05:13:02;;;;;;;19.27;11.43;;;;;;;0.08;67.78;95169.09;5064451;28;20501;-70
2022/03/03 05:15:28;;;;;;;21.27;12.65;;;;;;;0.10;67.24;95171.59;5066024;28;20056;-70
2022/03/03 05:17:54;;;;;;;27.25;12.85;;;;;;;0.15;67.70;95171.25;5065322;28;20028;-70
2022/03/03 05:20:19;;;;;;;24.88;14.48;;;;;;;0.19;67.50;95165.63;5066798;28;20036;-70
2022/03/03 05:22:44;;;;;;;25.23;13.05;;;;;;;0.24;67.32;95170.56;5081243;28;20531;-70
2022/03/03 05:25:10;;;;;;;22.17;12.02;;;;;;;0.26;66.49;95170.44;5066393;28;20021;-70
2022/03/03 05:27:37;;;;;;;21.23;12.70;;;;;;;0.25;66.48;95164.31;5066493;28;20028;-70
2022/03/03 05:30:03;;;;;;;20.90;12.23;;;;;;;0.26;66.18;95167.78;5081062;28;20028;-69
2022/03/03 05:32:29;;;;;;;22.88;12.70;;;;;;;0.33;65.46;95172.47;5067042;28;20032;-70
2022/03/03 05:34:54;;;;;;;24.02;13.35;;;;;;;0.34;65.56;95171.50;5064984;28;20036;-70
2022/03/03 05:37:22;;;;;;;23.20;13.60;;;;;;;0.38;65.38;95173.91;5066772;28;20028;-70
2022/03/03 05:39:47;;;;;;;23.75;12.63;;;;;;;0.43;65.59;95174.38;5064016;28;20068;-71
2022/03/03 05:42:13;;;;;;;22.65;12.80;;;;;;;0.36;66.08;95169.59;5066316;28;20085;-70
2022/03/03 05:44:38;;;;;;;20.63;12.45;;;;;;;0.43;65.35;95177.00;5081724;28;20471;-72
2022/03/03 05:47:04;;;;;;;24.30;12.20;;;;;;;0.45;65.79;95175.94;5064293;28;20025;-69
2022/03/03 05:49:29;;;;;;;23.40;12.85;;;;;;;0.46;65.56;95176.78;5067267;28;20427;-70
2022/03/03 05:51:55;;;;;;;21.55;12.15;;;;;;;0.57;65.44;95183.84;5046716;28;20471;-70
2022/03/03 05:54:20;;;;;;;21.73;13.23;;;;;;;0.55;65.58;95178.69;5066825;28;20021;-70
2022/03/03 05:56:46;;;;;;;20.65;12.40;;;;;;;0.58;64.97;95169.69;5065056;28;20039;-70
2022/03/03 05:59:13;;;;;;;23.67;12.13;;;;;;;0.61;64.62;95170.28;5065248;28;20036;-70
2022/03/03 06:01:40;;;;;;;23.80;12.95;;;;;;;0.64;64.81;95181.56;5064198;28;20552;-70
2022/03/03 06:04:06;;;;;;;21.05;13.40;;;;;;;0.62;64.82;95176.41;5064268;28;20041;-71
2022/03/03 06:06:32;;;;;;;23.15;13.63;;;;;;;0.65;63.76;95177.94;5065046;28;20438;-71
2022/03/03 06:09:05;;;;;;;21.25;11.95;;;;;;;0.67;63.19;95173.41;5063718;28;20036;-72
2022/03/03 06:11:30;;;;;;;27.08;12.48;;;;;;;0.64;63.54;95178.91;5066752;28;20032;-70
2022/03/03 06:14:06;;;;;;;20.60;12.13;;;;;;;0.63;63.78;95172.78;5064921;28;20513;-70
2022/03/03 06:16:32;;;;;;;21.17;12.07;;;;;;;0.71;63.14;95169.56;5065091;28;20021;-70
2022/03/03 06:18:58;;;;;;;21.08;11.38;;;;;;;0.66;63.13;95185.75;5068244;28;20021;-70
2022/03/03 06:21:24;;;;;;;21.95;12.23;;;;;;;0.70;63.08;95175.78;5068385;28;20029;-69
2022/03/03 06:23:50;;;;;;;22.40;11.93;;;;;;;0.79;63.14;95179.50;5085405;28;20041;-69
2022/03/03 06:26:16;;;;;;;18.20;10.98;;;;;;;0.81;62.54;95183.69;5068917;28;20445;-70
2022/03/03 06:28:42;;;;;;;24.70;13.63;;;;;;;0.84;62.26;95170.25;5069169;28;20043;-70
2022/03/03 06:31:08;;;;;;;21.35;11.98;;;;;;;0.89;61.12;95176.97;5068783;28;20052;-69
2022/03/03 06:33:34;;;;;;;23.40;12.32;;;;;;;0.95;61.12;95172.00;5085814;28;20226;-71
2022/03/03 06:35:59;;;;;;;18.42;11.27;;;;;;;0.99;61.08;95185.81;5067248;28;20025;-70
2022/03/03 06:38:25;;;;;;;18.70;12.02;;;;;;;1.04;60.96;95172.22;5085759;28;20035;-70
2022/03/03 06:40:50;;;;;;;22.48;12.13;;;;;;;1.07;60.87;95178.13;5069497;28;20477;-69
2022/03/03 06:43:16;;;;;;;21.15;11.98;;;;;;;1.13;60.43;95170.66;5067457;28;20602;-72
2022/03/03 06:45:42;;;;;;;25.15;12.32;;;;;;;1.12;60.72;95177.75;5068782;28;20119;-70
2022/03/03 06:48:07;;;;;;;20.30;11.80;;;;;;;1.12;59.87;95180.38;5067067;28;20028;-70
2022/03/03 06:50:40;;;;;;;21.70;11.77;;;;;;;1.10;60.12;95191.06;5070025;28;20041;-70
2022/03/03 06:53:07;;;;;;;22.75;12.02;;;;;;;1.06;59.70;95168.53;5066769;28;20032;-70
2022/03/03 06:55:32;;;;;;;19.88;11.40;;;;;;;1.02;60.00;95185.56;5068230;28;20483;-70
2022/03/03 06:57:58;;;;;;;19.85;12.35;;;;;;;1.02;59.48;95182.94;5067734;28;20035;-70
2022/03/03 07:00:25;;;;;;;20.55;11.25;;;;;;;1.05;59.82;95187.13;5067263;28;20064;-71
2022/03/03 07:02:52;;;;;;;18.90;11.07;;;;;;;1.12;59.16;95172.47;5068196;28;20048;-70
2022/03/03 07:05:18;;;;;;;18.90;11.55;;;;;;;1.20;59.16;95185.03;5067852;28;20028;-70
2022/03/03 07:07:45;;;;;;;19.80;11.32;;;;;;;1.34;58.44;95184.75;5085267;28;20036;-70
2022/03/03 07:10:11;;;;;;;22.83;12.38;;;;;;;1.72;58.24;95189.63;5067815;28;20032;-71
2022/03/03 07:12:37;;;;;;;19.83;11.82;;;;;;;1.67;57.40;95183.88;5069499;28;20028;-70
2022/03/03 07:15:03;;;;;;;19.13;11.35;;;;;;;1.64;58.33;95192.06;5067035;28;20035;-70
2022/03/03 07:17:49;;;;;;;24.88;12.30;;;;;;;1.68;56.58;95188.19;5067625;28;20040;-70
2022/03/03 07:20:23;;;;;;;20.75;11.68;;;;;;;1.67;56.93;95194.47;5069085;28;20376;-69
2022/03/03 07:22:57;;;;;;;20.83;11.52;;;;;;;1.89;57.34;95190.84;5066342;28;20399;-70
2022/03/03 07:25:23;;;;;;;20.13;12.07;;;;;;;2.46;55.66;95187.84;5084502;28;20039;-70
2022/03/03 07:27:48;;;;;;;19.23;11.15;;;;;;;2.71;54.22;95193.63;5066630;28;20024;-71
2022/03/03 07:30:15;;;;;;;20.92;12.30;;;;;;;2.71;53.80;95190.13;5049711;28;20029;-70
2022/03/03 07:32:54;;;;;;;20.00;11.20;;;;;;;2.63;54.05;95179.41;5083878;28;20036;-70
2022/03/03 07:35:20;;;;;;;22.65;11.55;;;;;;;2.47;54.09;95170.97;5083060;28;20028;-69
2022/03/03 07:37:55;;;;;;;17.48;11.60;;;;;;;2.33;54.50;95196.00;5051193;28;20405;-70
2022/03/03 07:40:20;;;;;;;21.27;11.60;;;;;;;2.44;53.97;95188.91;5065919;28;20036;-70
2022/03/03 07:42:46;;;;;;;22.90;11.32;;;;;;;2.39;54.56;95185.81;5069029;28;20021;-70
2022/03/03 07:45:11;;;;;;;19.30;11.25;;;;;;;2.34;54.27;95188.88;5083098;28;20020;-70
2022/03/03 07:47:37;;;;;;;22.90;12.23;;;;;;;2.30;53.87;95195.41;5067390;28;20046;-70
2022/03/03 07:50:03;;;;;;;18.73;11.00;;;;;;;2.24;54.35;95193.28;5067033;28;20028;-71
2022/03/03 07:52:28;;;;;;;20.00;11.75;;;;;;;2.21;54.50;95197.03;5066012;28;20035;-71
2022/03/03 07:54:54;;;;;;;19.20;11.73;;;;;;;2.17;54.09;95195.63;5068983;28;20021;-70
2022/03/03 07:57:21;;;;;;;17.75;10.88;;;;;;;2.05;54.60;95197.50;5082401;28;20074;-70
2022/03/03 07:59:47;;;;;;;22.65;11.80;;;;;;;2.02;55.08;95201.25;5068690;28;20028;-70
2022/03/03 08:02:21;;;;;;;21.05;11.57;;;;;;;2.10;55.46;95204.09;5065803;28;20117;-71
2022/03/03 08:04:46;;;;;;;21.23;12.20;;;;;;;2.15;54.18;95185.16;5067104;28;20049;-70
2022/03/03 08:07:13;;;;;;;23.23;12.18;;;;;;;2.25;54.80;95189.66;5066554;28;20040;-70
2022/03/03 08:09:38;;;;;;;19.15;11.18;;;;;;;2.31;54.77;95199.72;5066184;28;20116;-70
2022/03/03 08:12:05;;;;;;;18.23;11.30;;;;;;;2.26;54.82;95194.00;5067095;28;20478;-70
2022/03/03 08:14:31;;;;;;;19.65;11.68;;;;;;;2.44;54.04;95195.06;5065322;28;20024;-69
2022/03/03 08:16:56;;;;;;;18.15;12.18;;;;;;;2.42;54.71;95198.81;5067285;28;20074;-71
2022/03/03 08:19:22;;;;;;;23.58;13.40;;;;;;;2.56;54.04;95190.50;5065277;28;20462;-70
2022/03/03 08:21:48;;;;;;;21.60;12.55;;;;;;;2.59;53.78;95179.66;5083711;28;20510;-70
2022/03/03 08:24:13;;;;;;;24.00;12.63;;;;;;;2.71;54.20;95184.84;5065855;28;20120;-70
2022/03/03 08:26:39;;;;;;;21.85;12.20;;;;;;;3.21;52.46;95177.84;5066209;28;20028;-70
2022/03/03 08:29:04;;;;;;;24.40;12.00;;;;;;;3.36;52.14;95196.84;5066374;28;20036;-70
2022/03/03 08:31:40;;;;;;;19.48;11.90;;;;;;;3.28;52.04;95186.94;5066601;28;20499;-70
2022/03/03 08:34:29;;;;;;;21.40;12.50;;;;;;;3.11;52.14;95199.06;5066919;28;20035;-70
2022/03/03 08:36:57;;;;;;;20.17;12.10;;;;;;;3.02;52.10;95194.53;5079791;28;20020;-69
2022/03/03 08:39:27;;;;;;;19.73;12.43;;;;;;;2.98;52.49;95201.94;5066373;28;20050;-70
2022/03/03 08:42:00;;;;;;;21.63;12.00;;;;;;;2.94;52.21;95190.78;5049446;28;20020;-69
2022/03/03 08:44:43;;;;;;;23.75;12.30;;;;;;;2.81;52.19;95198.97;5066798;28;20085;-69
2022/03/03 08:47:11;;;;;;;19.42;11.60;;;;;;;2.87;53.11;95194.94;5083499;28;20529;-70
2022/03/03 08:49:40;;;;;;;21.58;12.40;;;;;;;3.00;53.27;95193.88;5065914;28;20024;-70
2022/03/03 08:52:06;;;;;;;21.00;12.38;;;;;;;3.14;52.58;95208.53;5066428;28;20028;-70
2022/03/03 08:54:31;;;;;;;23.85;12.32;;;;;;;3.28;52.06;95186.09;5066209;28;20523;-71
2022/03/03 08:56:57;;;;;;;21.63;13.13;;;;;;;3.40;51.40;95178.84;5065515;28;20037;-71
2022/03/03 08:59:22;;;;;;;21.13;12.50;;;;;;;3.46;51.78;95183.59;5065769;28;20035;-70
2022/03/03 09:01:48;;;;;;;20.02;12.00;;;;;;;3.37;51.50;95179.94;5081271;28;20040;-71
2022/03/03 09:04:14;;;;;;;18.10;11.68;;;;;;;3.40;51.58;95170.91;5066113;28;20155;-70
2022/03/03 09:06:39;;;;;;;19.35;12.02;;;;;;;3.32;51.71;95180.38;5065423;28;20511;-71
2022/03/03 09:09:05;;;;;;;20.67;12.52;;;;;;;3.38;52.06;95186.09;5082931;28;20028;-70
2022/03/03 09:11:30;;;;;;;20.70;12.30;;;;;;;3.37;51.86;95179.94;5081537;28;20033;-70
2022/03/03 09:13:55;;;;;;;19.88;12.02;;;;;;;3.43;52.33;95181.22;5066752;28;20032;-71
2022/03/03 09:16:21;;;;;;;19.98;11.82;;;;;;;3.40;51.00;95179.66;5066512;28;20025;-70
2022/03/03 09:18:47;;;;;;;20.55;12.50;;;;;;;3.37;51.62;95184.44;5066192;28;20059;-71
2022/03/03 09:21:13;;;;;;;20.15;11.82;;;;;;;3.42;51.46;95182.19;5066921;28;20067;-69
2022/03/03 09:23:38;;;;;;;20.20;12.35;;;;;;;3.46;51.67;95168.53;5063970;28;20021;-70
2022/03/03 09:26:04;;;;;;;21.95;13.20;;;;;;;3.39;51.34;95171.84;5067180;28;20051;-71
2022/03/03 09:28:29;;;;;;;22.90;12.57;;;;;;;3.44;51.33;95174.94;5065422;28;20021;-70
2022/03/03 09:30:56;;;;;;;20.58;12.48;;;;;;;3.50;50.14;95179.69;5082231;28;20033;-71
2022/03/03 09:33:23;;;;;;;22.05;13.23;;;;;;;3.43;51.38;95189.19;5065943;28;20388;-70
2022/03/03 09:35:49;;;;;;;21.73;12.15;;;;;;;3.28;51.28;95170.19;5081478;28;20119;-69
2022/03/03 09:38:14;;;;;;;20.63;12.43;;;;;;;3.27;51.29;95169.38;5082053;28;20518;-71
2022/03/03 09:40:41;;;;;;;17.83;11.32;;;;;;;3.34;51.31;95170.47;5065468;28;20353;-69
2022/03/03 09:43:06;;;;;;;20.92;12.00;;;;;;;3.28;51.61;95164.88;5066810;28;20021;-71
2022/03/03 09:45:32;;;;;;;20.17;11.88;;;;;;;3.29;51.86;95167.41;5064097;28;20427;-71
2022/03/03 09:47:59;;;;;;;18.88;12.13;;;;;;;3.32;51.68;95183.03;5065481;28;20161;-70
2022/03/03 09:50:24;;;;;;;18.48;11.63;;;;;;;3.40;50.89;95173.56;5080864;28;20031;-71
2022/03/03 09:52:50;;;;;;;18.50;11.93;;;;;;;3.37;50.78;95165.88;5065748;28;20029;-72
2022/03/03 09:55:16;;;;;;;19.90;12.98;;;;;;;3.38;51.04;95172.84;5064680;28;20021;-71
2022/03/03 09:57:41;;;;;;;17.25;11.50;;;;;;;3.49;51.14;95172.72;5064544;28;20031;-71
2022/03/03 10:00:08;;;;;;;18.73;11.35;;;;;;;3.55;50.92;95171.31;5081752;28;20058;-70
2022/03/03 10:02:59;;;;;;;18.70;11.85;;;;;;;3.54;50.62;95174.94;5063518;28;20051;-71
2022/03/03 10:05:47;;;;;;;18.92;11.50;;;;;;;3.51;50.14;95168.13;5065348;28;20127;-71
2022/03/03 10:08:14;;;;;;;21.35;11.75;;;;;;;3.31;50.73;95188.47;5081117;28;20033;-70
2022/03/03 10:10:45;;;;;;;18.98;12.25;;;;;;;3.32;50.81;95174.25;5081140;28;20037;-70
2022/03/03 10:13:14;;;;;;;20.38;11.98;;;;;;;3.34;50.89;95186.38;5064957;28;20027;-71
2022/03/03 10:15:40;;;;;;;17.60;10.77;;;;;;;3.14;50.83;95171.44;5064988;28;20021;-70
2022/03/03 10:18:07;;;;;;;16.10;11.27;;;;;;;3.12;51.27;95186.63;5065119;28;20025;-70
2022/03/03 10:20:55;;;;;;;20.40;11.90;;;;;;;3.22;51.68;95163.63;5064830;28;20032;-70
2022/03/03 10:23:34;;;;;;;15.77;10.25;;;;;;;3.34;51.11;95167.81;5065858;28;20450;-70
2022/03/03 10:26:03;;;;;;;18.55;11.43;;;;;;;3.27;51.90;95166.72;5064412;28;20617;-70
2022/03/03 10:28:30;;;;;;;17.33;12.00;;;;;;;3.44;51.34;95156.38;5064656;28;20031;-70
2022/03/03 10:31:06;;;;;;;21.15;12.07;;;;;;;3.61;50.31;95161.97;5064777;28;20427;-70
2022/03/03 10:33:40;;;;;;;19.60;11.77;;;;;;;3.66;50.48;95162.38;5063407;28;20032;-70
2022/03/03 10:36:14;;;;;;;19.13;12.25;;;;;;;3.57;50.87;95172.84;5064326;28;20035;-72
2022/03/03 10:38:53;;;;;;;17.38;11.30;;;;;;;3.57;50.83;95158.75;5064633;28;20028;-70
2022/03/03 10:41:38;;;;;;;19.13;11.18;;;;;;;3.67;50.59;95153.44;5078917;28;20086;-69
2022/03/03 10:44:05;;;;;;;18.58;11.70;;;;;;;3.65;51.33;95148.28;5066009;28;20028;-70
2022/03/03 10:46:31;;;;;;;20.00;11.73;;;;;;;3.75;50.67;95150.94;5063376;28;20080;-70
2022/03/03 10:48:57;;;;;;;20.92;11.75;;;;;;;3.75;49.45;95135.00;5064703;28;20029;-70
2022/03/03 10:51:24;;;;;;;19.23;10.88;;;;;;;3.79;49.04;95140.88;5046943;28;20039;-71
2022/03/03 10:53:54;;;;;;;20.77;11.70;;;;;;;3.67;49.93;95141.03;5080286;28;20065;-71
2022/03/03 10:56:20;;;;;;;19.35;11.25;;;;;;;3.77;49.75;95142.81;5081133;28;20394;-72
2022/03/03 10:58:57;;;;;;;18.17;11.60;;;;;;;3.71;49.55;95139.75;5063230;28;20024;-70
2022/03/03 11:01:27;;;;;;;15.18;10.38;;;;;;;3.72;49.70;95143.25;5080316;28;20032;-70
2022/03/03 11:03:53;;;;;;;20.13;11.10;;;;;;;3.66;50.03;95135.88;5063549;28;20047;-70
2022/03/03 11:06:28;;;;;;;19.05;11.35;;;;;;;3.75;49.77;95134.16;5067841;28;20033;-70
2022/03/03 11:08:54;;;;;;;17.83;10.38;;;;;;;3.79;50.03;95139.03;5067840;28;20094;-70
2022/03/03 11:11:20;;;;;;;19.88;11.07;;;;;;;3.67;49.43;95137.53;5067047;28;20633;-70
2022/03/03 11:13:49;;;;;;;19.13;11.23;;;;;;;3.71;49.42;95138.91;5085010;28;20021;-70
2022/03/03 11:16:20;;;;;;;15.32;10.30;;;;;;;3.69;49.49;95138.22;5066325;28;20028;-69
2022/03/03 11:18:46;;;;;;;18.95;11.38;;;;;;;3.69;49.78;95130.28;5051439;28;20035;-70
2022/03/03 11:21:13;;;;;;;16.95;11.23;;;;;;;3.70;49.56;95137.25;5068099;28;20030;-71
2022/03/03 11:23:58;;;;;;;17.05;10.27;;;;;;;3.52;49.76;95147.72;5084415;28;20515;-70
2022/03/03 11:26:27;;;;;;;16.45;11.15;;;;;;;3.33;49.93;95131.69;5068754;28;20038;-70